createdAt,value
2019-03-05T00:00:38.234Z,99.90
2019-03-05T00:03:07.816Z,99.90
2019-03-05T00:05:37.330Z,99.90
2019-03-05T00:08:06.813Z,99.90
2019-03-05T00:10:36.557Z,99.90
2019-03-05T00:13:06.052Z,99.90
2019-03-05T00:15:35.566Z,99.90
2019-03-05T00:18:05.408Z,99.90
2019-03-05T00:20:34.976Z,99.90
2019-03-05T00:23:04.444Z,99.90
2019-03-05T00:25:37.083Z,99.90
2019-03-05T00:28:25.528Z,99.90
2019-03-05T00:30:59.913Z,99.90
2019-03-05T00:33:46.011Z,99.90
2019-03-05T00:36:42.535Z,99.90
2019-03-05T00:39:16.645Z,99.90
2019-03-05T00:42:27.325Z,99.90
2019-03-05T00:45:25.905Z,99.90
2019-03-05T00:48:24.739Z,99.90
2019-03-05T00:51:36.461Z,99.90
2019-03-05T00:54:42.371Z,99.90
2019-03-05T00:57:37.500Z,99.90
2019-03-05T01:00:47.928Z,99.90
2019-03-05T01:03:53.869Z,99.90
2019-03-05T01:06:27.600Z,99.90
2019-03-05T01:08:58.138Z,99.90
2019-03-05T01:14:31.201Z,99.90
2019-03-05T01:17:00.688Z,99.90
2019-03-05T01:19:30.143Z,99.90
2019-03-05T01:21:59.649Z,99.90
2019-03-05T01:24:29.051Z,99.90
2019-03-05T01:26:58.853Z,99.90
2019-03-05T01:29:28.322Z,99.90
2019-03-05T01:31:59.444Z,99.90
2019-03-05T01:34:30.614Z,99.90
2019-03-05T01:37:02.068Z,99.90
2019-03-05T01:39:49.737Z,99.90
2019-03-05T01:42:19.589Z,99.90
2019-03-05T01:44:49.092Z,99.90
2019-03-05T01:47:18.553Z,99.90
2019-03-05T01:49:48.006Z,99.90
2019-03-05T01:52:17.427Z,99.90
2019-03-05T01:54:46.836Z,99.90
2019-03-05T01:57:16.238Z,99.90
2019-03-05T01:59:45.703Z,99.90
2019-03-05T02:02:15.078Z,99.90
2019-03-05T02:04:44.569Z,99.90
2019-03-05T02:07:14.006Z,99.90
2019-03-05T02:09:43.509Z,99.90
2019-03-05T02:12:13.127Z,99.90
2019-03-05T02:14:42.618Z,99.90
2019-03-05T02:17:12.177Z,99.90
2019-03-05T02:19:44.624Z,99.90
2019-03-05T02:22:27.650Z,99.90
2019-03-05T02:25:20.282Z,99.90
2019-03-05T02:28:12.403Z,99.90
2019-03-05T02:30:52.186Z,99.90
2019-03-05T02:33:38.032Z,99.90
2019-03-05T02:36:20.931Z,99.90
2019-03-05T02:39:00.749Z,99.90
2019-03-05T02:41:43.325Z,99.90
2019-03-05T02:44:29.293Z,99.90
2019-03-05T02:47:14.693Z,99.90
2019-03-05T02:50:14.487Z,99.90
2019-03-05T02:53:04.930Z,99.90
2019-03-05T02:55:50.975Z,99.90
2019-03-05T02:58:18.851Z,99.90
2019-03-05T03:00:58.808Z,99.90
2019-03-05T03:03:32.495Z,99.90
2019-03-05T03:06:03.540Z,99.90
2019-03-05T03:08:33.009Z,99.90
2019-03-05T03:11:02.581Z,99.90
2019-03-05T03:13:32.057Z,99.90
2019-03-05T03:16:01.470Z,99.90
2019-03-05T03:18:30.959Z,99.90
2019-03-05T03:21:00.396Z,99.90
2019-03-05T03:23:30.147Z,99.90
2019-03-05T03:25:59.603Z,99.90
2019-03-05T03:28:28.980Z,99.90
2019-03-05T03:30:58.418Z,99.90
2019-03-05T03:33:27.921Z,99.90
2019-03-05T03:35:57.393Z,99.90
2019-03-05T03:38:26.900Z,99.90
2019-03-05T03:40:56.335Z,99.90
2019-03-05T03:43:25.824Z,99.90
2019-03-05T03:45:55.339Z,99.90
2019-03-05T03:48:24.742Z,99.90
2019-03-05T03:50:54.185Z,99.90
2019-03-05T03:53:23.588Z,99.90
2019-03-05T03:55:52.994Z,99.90
2019-03-05T03:58:22.427Z,99.90
2019-03-05T04:00:51.971Z,99.90
2019-03-05T04:03:21.554Z,99.90
2019-03-05T04:05:51.103Z,99.90
2019-03-05T04:08:20.574Z,99.90
2019-03-05T04:10:50.008Z,99.90
2019-03-05T04:13:19.415Z,99.90
2019-03-05T04:15:48.927Z,99.90
2019-03-05T04:18:18.329Z,99.90
2019-03-05T04:20:49.389Z,99.90
2019-03-05T04:23:18.840Z,99.90
2019-03-05T04:25:48.293Z,99.90
2019-03-05T04:28:17.724Z,99.90
2019-03-05T04:31:06.474Z,99.90
2019-03-05T04:33:35.910Z,99.90
2019-03-05T04:36:05.390Z,99.90
2019-03-05T04:38:34.831Z,99.90
2019-03-05T04:41:04.312Z,99.90
2019-03-05T04:43:33.740Z,99.90
2019-03-05T04:46:21.065Z,99.90
2019-03-05T04:48:52.133Z,99.90
2019-03-05T04:51:23.176Z,99.90
2019-03-05T04:53:52.614Z,99.90
2019-03-05T04:56:22.004Z,99.90
2019-03-05T04:58:51.442Z,99.90
2019-03-05T05:01:20.840Z,99.90
2019-03-05T05:03:50.613Z,99.90
2019-03-05T05:06:20.418Z,99.90
2019-03-05T05:08:49.826Z,99.90
2019-03-05T05:11:19.271Z,99.90
2019-03-05T05:13:49.021Z,99.90
2019-03-05T05:16:18.459Z,99.90
2019-03-05T05:18:48.231Z,99.90
2019-03-05T05:21:17.707Z,99.90
2019-03-05T05:23:47.129Z,99.90
2019-03-05T05:26:23.265Z,99.90
2019-03-05T05:28:52.770Z,99.90
2019-03-05T05:31:22.198Z,99.90
2019-03-05T05:33:51.604Z,99.90
2019-03-05T05:36:21.043Z,99.90
2019-03-05T05:38:50.446Z,99.90
2019-03-05T05:41:19.942Z,99.90
2019-03-05T05:43:49.464Z,99.90
2019-03-05T05:46:18.964Z,99.90
2019-03-05T05:48:48.387Z,99.90
2019-03-05T05:51:17.776Z,99.90
2019-03-05T05:53:47.222Z,99.90
2019-03-05T05:56:16.633Z,99.90
2019-03-05T05:58:46.063Z,99.90
2019-03-05T06:01:15.494Z,99.90
2019-03-05T06:03:44.972Z,99.90
2019-03-05T06:06:14.477Z,99.90
2019-03-05T06:08:43.885Z,99.90
2019-03-05T06:11:13.425Z,99.90
2019-03-05T06:13:42.814Z,99.90
2019-03-05T06:16:12.217Z,99.90
2019-03-05T06:18:41.652Z,99.90
2019-03-05T06:21:11.072Z,99.90
2019-03-05T06:23:40.504Z,99.90
2019-03-05T06:26:09.912Z,99.90
2019-03-05T06:28:39.666Z,99.90
2019-03-05T06:31:09.076Z,99.90
2019-03-05T06:33:38.485Z,99.90
2019-03-05T06:36:07.954Z,99.90
2019-03-05T06:38:37.375Z,99.90
2019-03-05T06:41:06.814Z,99.90
2019-03-05T06:43:36.235Z,99.90
2019-03-05T06:46:05.656Z,99.90
2019-03-05T06:48:35.373Z,99.90
2019-03-05T06:51:04.793Z,99.90
2019-03-05T06:53:34.245Z,99.90
2019-03-05T06:56:03.656Z,99.90
2019-03-05T06:58:33.071Z,99.90
2019-03-05T07:01:02.506Z,99.90
2019-03-05T07:03:31.913Z,99.90
2019-03-05T07:06:47.709Z,99.90
2019-03-05T07:09:36.965Z,99.90
2019-03-05T07:12:11.114Z,99.90
2019-03-05T07:15:20.244Z,99.90
2019-03-05T07:18:12.540Z,99.90
2019-03-05T07:21:09.192Z,99.90
2019-03-05T07:24:00.778Z,99.90
2019-03-05T07:26:30.209Z,99.90
2019-03-05T07:28:59.758Z,99.90
2019-03-05T07:31:29.258Z,99.90
2019-03-05T07:33:58.663Z,99.90
2019-03-05T07:36:28.115Z,99.90
2019-03-05T07:38:57.541Z,99.90
2019-03-05T07:41:26.947Z,99.90
2019-03-05T07:43:56.404Z,99.90
2019-03-05T07:46:26.150Z,99.90
2019-03-05T07:48:55.973Z,99.90
2019-03-05T07:51:25.398Z,99.90
2019-03-05T07:53:54.872Z,99.90
2019-03-05T07:56:24.298Z,99.90
2019-03-05T07:58:54.083Z,99.90
2019-03-05T08:01:23.515Z,99.90
2019-03-05T08:03:52.934Z,99.90
2019-03-05T08:06:22.337Z,99.90
2019-03-05T08:09:30.540Z,99.90
2019-03-05T08:12:32.988Z,99.90
2019-03-05T08:15:18.338Z,99.90
2019-03-05T08:17:48.154Z,99.90
2019-03-05T08:20:17.822Z,99.90
2019-03-05T08:22:47.358Z,99.90
2019-03-05T08:25:16.824Z,99.90
2019-03-05T08:27:46.479Z,99.90
2019-03-05T08:30:18.108Z,99.90
2019-03-05T08:32:47.672Z,99.90
2019-03-05T08:35:17.155Z,99.90
2019-03-05T08:37:46.860Z,99.90
2019-03-05T08:40:17.774Z,99.90
2019-03-05T08:42:47.264Z,99.90
2019-03-05T08:45:28.479Z,99.90
2019-03-05T08:47:48.658Z,99.90
2019-03-05T08:50:18.103Z,99.90
2019-03-05T08:52:47.674Z,99.90
2019-03-05T08:55:17.256Z,99.90
2019-03-05T08:57:46.691Z,99.90
2019-03-05T09:00:21.450Z,99.90
2019-03-05T09:02:51.202Z,99.90
2019-03-05T09:05:20.938Z,99.90
2019-03-05T09:07:51.089Z,99.90
2019-03-05T09:10:27.352Z,99.90
2019-03-05T09:12:57.131Z,99.90
2019-03-05T09:15:26.736Z,99.90
2019-03-05T09:17:56.605Z,99.90
2019-03-05T09:20:26.098Z,99.90
2019-03-05T09:22:55.616Z,99.90
2019-03-05T09:25:25.118Z,99.90
2019-03-05T09:27:55.357Z,99.90
2019-03-05T09:30:25.493Z,99.90
2019-03-05T09:32:54.986Z,99.90
2019-03-05T09:35:24.507Z,99.90
2019-03-05T09:37:54.006Z,99.90
2019-03-05T09:40:28.819Z,99.90
2019-03-05T09:42:58.306Z,99.90
2019-03-05T09:45:28.413Z,99.90
2019-03-05T09:47:57.972Z,99.90
2019-03-05T09:50:27.524Z,99.90
2019-03-05T09:52:56.976Z,99.90
2019-03-05T09:55:27.250Z,99.90
2019-03-05T09:58:07.629Z,99.90
2019-03-05T10:00:30.078Z,99.90
2019-03-05T10:02:59.626Z,99.90
2019-03-05T10:05:29.139Z,99.90
2019-03-05T10:07:58.566Z,99.90
2019-03-05T10:10:31.816Z,99.90
2019-03-05T10:13:04.263Z,99.90
2019-03-05T10:15:33.388Z,99.90
2019-03-05T10:18:12.131Z,99.90
2019-03-05T10:20:35.573Z,99.90
2019-03-05T10:23:05.980Z,99.90
2019-03-05T10:25:35.549Z,99.90
2019-03-05T10:28:06.006Z,99.90
2019-03-05T10:30:42.308Z,99.90
2019-03-05T10:33:12.691Z,99.90
2019-03-05T10:35:42.185Z,99.90
2019-03-05T10:38:16.060Z,99.90
2019-03-05T10:40:51.040Z,99.90
2019-03-05T10:43:20.513Z,99.90
2019-03-05T10:45:50.811Z,99.90
2019-03-05T10:48:23.878Z,99.90
2019-03-05T10:50:53.431Z,99.90
2019-03-05T10:53:22.998Z,99.90
2019-03-05T10:55:52.573Z,99.90
2019-03-05T10:58:32.767Z,99.90
2019-03-05T11:00:55.913Z,99.90
2019-03-05T11:03:29.232Z,99.90
2019-03-05T11:05:58.869Z,99.90
2019-03-05T11:08:28.830Z,99.90
2019-03-05T11:10:58.588Z,99.90
2019-03-05T11:13:28.097Z,97.60
2019-03-05T11:16:00.881Z,99.90
2019-03-05T11:18:30.400Z,98.80
2019-03-05T11:20:59.898Z,98.40
2019-03-05T11:23:29.345Z,98.10
2019-03-05T11:25:58.780Z,99.20
2019-03-05T11:28:28.275Z,99.30
2019-03-05T11:30:57.710Z,99.90
2019-03-05T11:33:27.180Z,98.00
2019-03-05T11:35:56.786Z,99.90
2019-03-05T11:38:26.787Z,98.40
2019-03-05T11:40:56.311Z,96.10
2019-03-05T11:43:25.722Z,94.00
2019-03-05T11:45:55.589Z,94.20
2019-03-05T11:48:25.051Z,94.70
2019-03-05T11:50:54.558Z,95.20
2019-03-05T11:53:24.139Z,94.40
2019-03-05T11:55:53.564Z,96.10
2019-03-05T11:58:23.020Z,97.80
2019-03-05T12:00:54.154Z,96.00
2019-03-05T12:03:23.579Z,96.20
2019-03-05T12:05:53.107Z,93.60
2019-03-05T12:08:22.605Z,95.70
2019-03-05T12:10:52.153Z,94.90
2019-03-05T12:13:21.721Z,94.90
2019-03-05T12:15:51.227Z,94.40
2019-03-05T12:18:21.262Z,95.50
2019-03-05T12:20:50.664Z,92.60
2019-03-05T12:23:22.152Z,94.90
2019-03-05T12:25:51.658Z,92.30
2019-03-05T12:28:24.075Z,91.80
2019-03-05T12:30:52.921Z,92.70
2019-03-05T12:33:24.177Z,93.00
2019-03-05T12:35:53.705Z,92.90
2019-03-05T12:38:23.149Z,94.20
2019-03-05T12:40:52.753Z,93.20
2019-03-05T12:43:22.190Z,94.50
2019-03-05T12:45:53.386Z,95.40
2019-03-05T12:48:22.903Z,94.50
2019-03-05T12:50:52.568Z,94.40
2019-03-05T12:53:22.078Z,92.50
2019-03-05T12:55:51.479Z,91.50
2019-03-05T12:58:21.282Z,92.80
2019-03-05T13:00:50.787Z,91.10
2019-03-05T13:03:20.235Z,92.80
2019-03-05T13:05:49.753Z,93.10
2019-03-05T13:08:19.187Z,94.00
2019-03-05T13:10:48.837Z,94.80
2019-03-05T13:13:18.358Z,93.00
2019-03-05T13:15:47.934Z,90.80
2019-03-05T13:18:17.801Z,91.40
2019-03-05T13:20:47.199Z,89.40
2019-03-05T13:23:16.940Z,88.40
2019-03-05T13:25:46.490Z,90.10
2019-03-05T13:28:15.987Z,91.60
2019-03-05T13:30:45.578Z,89.80
2019-03-05T13:33:15.083Z,88.60
2019-03-05T13:35:44.487Z,90.80
2019-03-05T13:38:13.998Z,90.60
2019-03-05T13:40:43.427Z,91.30
2019-03-05T13:43:12.859Z,88.60
2019-03-05T13:45:49.127Z,88.70
2019-03-05T13:48:19.614Z,91.60
2019-03-05T13:51:19.505Z,89.80
2019-03-05T13:54:17.824Z,89.40
2019-03-05T13:57:19.567Z,87.10
2019-03-05T13:59:49.765Z,89.00
2019-03-05T14:02:26.919Z,90.70
2019-03-05T14:05:06.827Z,91.80
2019-03-05T14:08:15.476Z,91.10
2019-03-05T14:10:44.933Z,90.60
2019-03-05T14:13:14.394Z,92.30
2019-03-05T14:15:45.510Z,91.30
2019-03-05T14:18:15.459Z,91.50
2019-03-05T14:20:44.990Z,92.10
2019-03-05T14:23:14.472Z,92.30
2019-03-05T14:25:44.495Z,92.40
2019-03-05T14:28:14.021Z,94.10
2019-03-05T14:30:44.956Z,93.90
2019-03-05T14:33:14.631Z,94.60
2019-03-05T14:35:47.390Z,94.70
2019-03-05T14:38:16.390Z,94.10
2019-03-05T14:40:46.406Z,93.90
2019-03-05T14:43:15.971Z,93.50
2019-03-05T14:45:45.619Z,94.60
2019-03-05T14:48:15.118Z,93.80
2019-03-05T14:50:46.344Z,93.60
2019-03-05T14:53:15.880Z,94.10
2019-03-05T14:55:45.529Z,94.50
2019-03-05T14:58:14.963Z,94.80
2019-03-05T15:00:44.664Z,93.70
2019-03-05T15:03:14.358Z,93.70
2019-03-05T15:05:43.820Z,94.60
2019-03-05T15:08:13.291Z,95.60
2019-03-05T15:10:42.785Z,96.60
2019-03-05T15:13:17.213Z,95.40
2019-03-05T15:15:43.753Z,96.60
2019-03-05T15:18:13.356Z,96.30
2019-03-05T15:20:42.817Z,96.80
2019-03-05T15:23:12.447Z,95.70
2019-03-05T15:25:42.051Z,95.50
2019-03-05T15:28:11.478Z,96.30
2019-03-05T15:30:40.998Z,95.40
2019-03-05T15:33:10.499Z,96.20
2019-03-05T15:35:39.995Z,96.80
2019-03-05T15:38:09.486Z,96.10
2019-03-05T15:40:42.149Z,97.50
2019-03-05T15:43:13.207Z,96.80
2019-03-05T15:45:42.818Z,97.70
2019-03-05T15:48:12.412Z,97.20
2019-03-05T15:50:42.274Z,96.80
2019-03-05T15:53:14.679Z,97.00
2019-03-05T15:55:44.165Z,96.70
2019-03-05T15:58:15.254Z,97.40
2019-03-05T16:00:45.186Z,98.00
2019-03-05T16:03:15.501Z,97.30
2019-03-05T16:05:45.069Z,97.40
2019-03-05T16:08:14.483Z,97.60
2019-03-05T16:10:43.991Z,97.90
2019-03-05T16:13:15.265Z,97.20
2019-03-05T16:15:45.498Z,97.20
2019-03-05T16:18:16.046Z,96.60
2019-03-05T16:20:45.542Z,98.60
2019-03-05T16:23:14.993Z,98.00
2019-03-05T16:25:46.163Z,97.70
2019-03-05T16:28:16.495Z,99.20
2019-03-05T16:30:53.577Z,98.90
2019-03-05T16:33:27.396Z,98.80
2019-03-05T16:36:16.808Z,98.60
2019-03-05T16:38:55.122Z,99.40
2019-03-05T16:41:27.392Z,99.60
2019-03-05T16:43:58.473Z,99.90
2019-03-05T16:46:45.760Z,99.90
2019-03-05T16:49:32.118Z,99.90
2019-03-05T16:52:19.062Z,99.90
2019-03-05T16:54:50.226Z,99.90
2019-03-05T16:57:27.625Z,99.90
2019-03-05T17:00:14.699Z,99.90
2019-03-05T17:02:49.020Z,99.90
2019-03-05T17:05:42.366Z,99.90
2019-03-05T17:08:29.712Z,99.90
2019-03-05T17:11:01.260Z,99.90
2019-03-05T17:13:30.765Z,99.90
2019-03-05T17:16:00.183Z,99.90
2019-03-05T17:18:29.612Z,99.90
2019-03-05T17:20:59.066Z,99.90
2019-03-05T17:23:28.549Z,99.90
2019-03-05T17:25:58.059Z,99.90
2019-03-05T17:28:27.559Z,99.90
2019-03-05T17:30:57.075Z,99.90
2019-03-05T17:33:26.792Z,99.90
2019-03-05T17:35:56.222Z,99.90
2019-03-05T17:38:25.670Z,99.90
2019-03-05T17:40:55.192Z,99.90
2019-03-05T17:43:24.858Z,99.90
2019-03-05T17:45:54.303Z,99.90
2019-03-05T17:48:23.716Z,99.90
2019-03-05T17:51:00.046Z,99.90
2019-03-05T17:53:29.823Z,99.90
2019-03-05T17:55:59.400Z,99.90
2019-03-05T17:58:28.955Z,99.90
2019-03-05T18:00:58.619Z,99.90
2019-03-05T18:03:28.090Z,99.90
2019-03-05T18:05:57.508Z,99.90
2019-03-05T18:08:27.026Z,99.90
2019-03-05T18:10:56.476Z,99.90
2019-03-05T18:13:25.964Z,99.90
2019-03-05T18:15:55.413Z,99.90
2019-03-05T18:18:24.912Z,99.90
2019-03-05T18:20:54.481Z,99.90
2019-03-05T18:23:24.162Z,99.90
2019-03-05T18:25:53.701Z,99.90
2019-03-05T18:28:23.264Z,99.90
2019-03-05T18:30:52.848Z,99.90
2019-03-05T18:33:22.286Z,99.90
2019-03-05T18:35:51.769Z,99.90
2019-03-05T18:38:21.336Z,99.90
2019-03-05T18:40:51.644Z,99.90
2019-03-05T18:43:21.116Z,99.90
2019-03-05T18:45:50.891Z,99.90
2019-03-05T18:48:20.324Z,99.90
2019-03-05T18:50:49.825Z,99.90
2019-03-05T18:53:19.303Z,99.90
2019-03-05T18:55:48.793Z,99.90
2019-03-05T18:58:18.230Z,99.90
2019-03-05T19:00:47.661Z,99.90
2019-03-05T19:03:20.166Z,99.90
2019-03-05T19:05:49.769Z,99.90
2019-03-05T19:08:19.170Z,99.90
2019-03-05T19:10:48.976Z,99.90
2019-03-05T19:13:18.481Z,99.90
2019-03-05T19:15:48.282Z,99.90
2019-03-05T19:18:18.013Z,99.90
2019-03-05T19:20:47.529Z,99.90
2019-03-05T19:23:17.149Z,99.90
2019-03-05T19:25:47.946Z,99.90
2019-03-05T19:28:17.516Z,99.90
2019-03-05T19:30:53.399Z,99.90
2019-03-05T19:33:22.823Z,99.90
2019-03-05T19:35:52.391Z,99.90
2019-03-05T19:38:22.135Z,99.90
2019-03-05T19:40:51.733Z,99.90
2019-03-05T19:43:21.480Z,99.90
2019-03-05T19:45:50.971Z,99.90
2019-03-05T19:48:20.383Z,99.90
2019-03-05T19:50:49.811Z,99.90
2019-03-05T19:53:19.327Z,99.90
2019-03-05T19:55:48.893Z,99.90
2019-03-05T19:58:18.413Z,99.90
2019-03-05T20:01:02.838Z,99.90
2019-03-05T20:03:32.424Z,99.90
2019-03-05T20:06:02.132Z,99.90
2019-03-05T20:08:39.386Z,99.90
2019-03-05T20:11:03.058Z,99.90
2019-03-05T20:13:32.525Z,99.90
2019-03-05T20:16:02.118Z,99.90
2019-03-05T20:18:31.602Z,99.90
2019-03-05T20:21:01.017Z,99.90
2019-03-05T20:23:30.567Z,99.90
2019-03-05T20:26:00.232Z,99.90
2019-03-05T20:28:29.705Z,99.90
2019-03-05T20:30:59.147Z,99.90
2019-03-05T20:33:28.662Z,99.90
2019-03-05T20:35:58.336Z,99.90
2019-03-05T20:38:27.852Z,99.90
2019-03-05T20:40:57.482Z,99.90
2019-03-05T20:43:26.912Z,99.90
2019-03-05T20:46:16.406Z,99.90
2019-03-05T20:48:45.819Z,99.90
2019-03-05T20:51:15.279Z,99.90
2019-03-05T20:53:44.790Z,99.90
2019-03-05T20:56:14.628Z,99.90
2019-03-05T20:58:44.064Z,99.90
2019-03-05T21:01:13.629Z,99.90
2019-03-05T21:03:43.238Z,99.90
2019-03-05T21:06:12.878Z,99.90
2019-03-05T21:08:42.602Z,99.90
2019-03-05T21:11:12.466Z,99.90
2019-03-05T21:13:41.978Z,99.90
2019-03-05T21:16:11.508Z,99.90
2019-03-05T21:18:41.275Z,99.90
2019-03-05T21:21:10.749Z,99.90
2019-03-05T21:23:40.215Z,99.90
2019-03-05T21:26:09.708Z,99.90
2019-03-05T21:28:39.179Z,99.90
2019-03-05T21:31:09.046Z,99.90
2019-03-05T21:33:38.772Z,99.90
2019-03-05T21:36:08.290Z,99.90
2019-03-05T21:38:37.826Z,99.90
2019-03-05T21:41:07.359Z,99.90
2019-03-05T21:43:36.791Z,99.90
2019-03-05T21:46:16.785Z,99.90
2019-03-05T21:48:46.208Z,99.90
2019-03-05T21:51:15.947Z,99.90
2019-03-05T21:53:45.392Z,99.90
2019-03-05T21:56:14.817Z,99.90
2019-03-05T21:58:44.330Z,99.90
2019-03-05T22:01:14.155Z,99.90
2019-03-05T22:03:43.591Z,99.90
2019-03-05T22:06:13.038Z,99.90
2019-03-05T22:08:42.466Z,99.90
2019-03-05T22:11:11.938Z,99.90
2019-03-05T22:13:41.357Z,99.90
2019-03-05T22:16:10.866Z,99.90
2019-03-05T22:18:40.295Z,99.90
2019-03-05T22:21:09.965Z,99.90
2019-03-05T22:23:39.472Z,99.90
2019-03-05T22:26:08.885Z,99.90
2019-03-05T22:28:38.479Z,99.90
2019-03-05T22:31:08.072Z,99.90
2019-03-05T22:33:37.503Z,99.90
2019-03-05T22:36:07.108Z,99.90
2019-03-05T22:38:36.523Z,99.90
2019-03-05T22:41:06.049Z,99.90
2019-03-05T22:43:35.479Z,99.90
2019-03-05T22:46:04.894Z,99.90
2019-03-05T22:48:34.343Z,99.90
2019-03-05T22:51:03.856Z,99.90
2019-03-05T22:53:33.320Z,99.90
2019-03-05T22:56:02.760Z,99.90
2019-03-05T22:58:32.196Z,99.90
2019-03-05T23:01:12.738Z,99.90
2019-03-05T23:03:42.768Z,99.90
2019-03-05T23:06:13.290Z,99.90
2019-03-05T23:08:43.188Z,99.90
2019-03-05T23:11:12.747Z,99.90
2019-03-05T23:13:42.878Z,99.90
2019-03-05T23:16:12.510Z,99.90
2019-03-05T23:18:42.087Z,99.90
2019-03-05T23:21:11.801Z,99.90
2019-03-05T23:23:41.298Z,99.90
2019-03-05T23:26:10.968Z,99.90
2019-03-05T23:28:41.043Z,99.90
2019-03-05T23:31:12.514Z,99.90
2019-03-05T23:33:42.301Z,99.90
2019-03-05T23:36:11.935Z,99.90
2019-03-05T23:38:41.372Z,99.90
2019-03-05T23:41:10.930Z,99.90
2019-03-05T23:43:40.444Z,99.90
2019-03-05T23:46:09.934Z,99.90
2019-03-05T23:48:39.355Z,99.90
2019-03-05T23:51:08.843Z,99.90
2019-03-05T23:53:38.262Z,99.90
2019-03-05T23:56:07.718Z,99.90
2019-03-05T23:58:37.179Z,99.90
